createdAt,value
2019-06-07T00:02:13.278Z,9.90
2019-06-07T00:04:41.167Z,9.37
2019-06-07T00:07:10.290Z,10.10
2019-06-07T00:09:38.235Z,9.27
2019-06-07T00:12:09.168Z,9.37
2019-06-07T00:14:35.342Z,9.80
2019-06-07T00:17:03.023Z,8.87
2019-06-07T00:19:30.680Z,9.53
2019-06-07T00:22:20.900Z,10.23
2019-06-07T00:24:27.726Z,10.70
2019-06-07T00:26:58.953Z,10.67
2019-06-07T00:29:25.014Z,8.77
2019-06-07T00:31:52.729Z,9.20
2019-06-07T00:34:23.036Z,9.50
2019-06-07T00:36:49.711Z,8.53
2019-06-07T00:39:21.889Z,9.53
2019-06-07T00:41:46.997Z,9.63
2019-06-07T00:44:15.100Z,8.87
2019-06-07T00:46:44.036Z,9.67
2019-06-07T00:49:13.460Z,9.33
2019-06-07T00:51:50.303Z,9.37
2019-06-07T00:54:12.402Z,9.87
2019-06-07T00:56:39.894Z,10.10
2019-06-07T00:59:11.604Z,9.97
2019-06-07T01:01:36.917Z,11.40
2019-06-07T01:04:04.535Z,10.30
2019-06-07T01:06:32.132Z,10.00
2019-06-07T01:08:59.775Z,11.17
2019-06-07T01:11:27.499Z,11.80
2019-06-07T01:13:55.153Z,10.70
2019-06-07T01:16:24.307Z,9.60
2019-06-07T01:18:52.169Z,10.20
2019-06-07T01:21:23.510Z,9.53
2019-06-07T01:24:07.958Z,8.70
2019-06-07T01:26:21.939Z,9.17
2019-06-07T01:28:48.959Z,8.50
2019-06-07T01:31:17.726Z,8.80
2019-06-07T01:33:50.689Z,9.67
2019-06-07T01:36:17.909Z,7.87
2019-06-07T01:38:44.901Z,8.33
2019-06-07T01:41:12.548Z,8.57
2019-06-07T01:43:40.203Z,8.87
2019-06-07T01:46:07.833Z,8.70
2019-06-07T01:48:49.160Z,8.57
2019-06-07T01:51:05.280Z,9.13
2019-06-07T01:53:33.107Z,8.27
2019-06-07T01:56:00.683Z,8.10
2019-06-07T01:58:29.247Z,7.97
2019-06-07T02:00:56.939Z,7.97
2019-06-07T02:03:29.337Z,8.60
2019-06-07T02:05:53.988Z,8.67
2019-06-07T02:08:22.247Z,8.70
2019-06-07T02:10:50.967Z,9.93
2019-06-07T02:13:18.816Z,10.50
2019-06-07T02:15:46.452Z,9.67
2019-06-07T02:18:14.075Z,9.43
2019-06-07T02:20:41.667Z,9.30
2019-06-07T02:23:09.253Z,8.83
2019-06-07T02:25:46.004Z,9.13
2019-06-07T02:28:27.299Z,9.10
2019-06-07T02:30:44.901Z,9.03
2019-06-07T02:33:05.315Z,8.67
2019-06-07T02:35:39.015Z,8.83
2019-06-07T02:38:02.380Z,8.07
2019-06-07T02:40:36.400Z,8.67
2019-06-07T02:42:59.820Z,7.93
2019-06-07T02:45:35.051Z,9.53
2019-06-07T02:47:56.910Z,9.63
2019-06-07T02:50:26.221Z,9.17
2019-06-07T02:52:53.946Z,9.40
2019-06-07T02:55:21.590Z,9.53
2019-06-07T02:57:49.212Z,9.83
2019-06-07T03:01:06.635Z,9.37
2019-06-07T03:03:24.620Z,9.90
2019-06-07T03:05:52.398Z,8.30
2019-06-07T03:08:20.011Z,9.07
2019-06-07T03:10:48.973Z,8.13
2019-06-07T03:13:18.306Z,8.40
2019-06-07T03:15:50.127Z,10.30
2019-06-07T03:18:36.410Z,9.90
2019-06-07T03:21:05.971Z,9.27
2019-06-07T03:23:34.376Z,9.30
2019-06-07T03:26:04.323Z,9.37
2019-06-07T03:28:34.703Z,9.30
2019-06-07T03:31:03.150Z,9.53
2019-06-07T03:33:33.297Z,8.53
2019-06-07T03:36:13.071Z,9.27
2019-06-07T03:38:31.976Z,9.40
2019-06-07T03:40:59.163Z,8.03
2019-06-07T03:43:27.408Z,8.57
2019-06-07T03:45:55.025Z,7.87
2019-06-07T03:48:22.668Z,8.57
2019-06-07T03:51:04.311Z,8.80
2019-06-07T03:53:19.779Z,9.07
2019-06-07T03:55:47.414Z,9.33
2019-06-07T03:58:31.320Z,9.70
2019-06-07T04:00:44.486Z,9.63
2019-06-07T04:03:32.487Z,9.20
2019-06-07T04:05:43.602Z,9.50
2019-06-07T04:08:11.016Z,9.43
2019-06-07T04:10:53.399Z,8.23
2019-06-07T04:13:08.153Z,9.07
2019-06-07T04:15:38.381Z,9.00
2019-06-07T04:18:05.185Z,9.20
2019-06-07T04:20:35.727Z,9.13
2019-06-07T04:23:02.242Z,7.10
2019-06-07T04:25:33.851Z,8.17
2019-06-07T04:27:59.299Z,8.93
2019-06-07T04:30:41.980Z,9.30
2019-06-07T04:33:12.191Z,9.60
2019-06-07T04:35:43.082Z,9.50
2019-06-07T04:38:09.923Z,8.90
2019-06-07T04:40:39.963Z,10.30
2019-06-07T04:43:07.364Z,8.97
2019-06-07T04:45:41.723Z,9.53
2019-06-07T04:48:06.503Z,10.43
2019-06-07T04:50:40.327Z,10.80
2019-06-07T04:53:06.561Z,10.73
2019-06-07T04:55:38.641Z,10.47
2019-06-07T04:58:05.781Z,10.87
2019-06-07T05:00:49.668Z,11.10
2019-06-07T05:03:04.646Z,10.57
2019-06-07T05:05:34.353Z,10.63
2019-06-07T05:08:07.482Z,9.57
2019-06-07T05:10:35.163Z,10.47
2019-06-07T05:13:00.970Z,10.87
2019-06-07T05:15:29.576Z,10.93
2019-06-07T05:17:57.221Z,11.63
2019-06-07T05:20:24.855Z,11.63
2019-06-07T05:22:52.491Z,12.40
2019-06-07T05:25:20.106Z,11.87
2019-06-07T05:27:47.729Z,10.77
2019-06-07T05:32:59.634Z,12.70
2019-06-07T05:35:27.408Z,12.27
2019-06-07T05:37:55.030Z,10.47
2019-06-07T05:40:32.974Z,11.20
2019-06-07T05:43:01.410Z,10.90
2019-06-07T05:45:37.692Z,11.30
2019-06-07T05:48:04.674Z,10.30
2019-06-07T05:50:42.607Z,11.97
2019-06-07T05:53:02.083Z,11.87
2019-06-07T05:55:30.826Z,11.20
2019-06-07T05:57:58.457Z,10.43
2019-06-07T06:00:26.081Z,10.30
2019-06-07T06:03:04.655Z,12.00
2019-06-07T06:05:33.293Z,11.13
2019-06-07T06:07:52.646Z,10.33
2019-06-07T06:10:20.297Z,12.60
2019-06-07T06:12:51.622Z,11.27
2019-06-07T06:15:17.459Z,12.60
2019-06-07T06:17:48.043Z,12.53
2019-06-07T06:20:14.761Z,11.60
2019-06-07T06:22:44.840Z,11.57
2019-06-07T06:28:09.563Z,10.77
2019-06-07T06:30:12.385Z,10.40
2019-06-07T06:32:42.928Z,9.80
2019-06-07T06:35:09.405Z,7.20
2019-06-07T06:37:41.350Z,6.23
2019-06-07T06:40:07.398Z,5.50
2019-06-07T06:42:35.041Z,4.80
2019-06-07T06:45:03.347Z,4.00
2019-06-07T06:47:30.943Z,5.20
2019-06-07T06:50:00.342Z,4.40
2019-06-07T06:52:28.017Z,4.27
2019-06-07T06:55:00.766Z,5.47
2019-06-07T06:57:25.092Z,4.47
2019-06-07T06:59:52.938Z,3.70
2019-06-07T07:04:54.083Z,3.80
2019-06-07T07:07:24.819Z,3.17
2019-06-07T07:09:59.017Z,3.27
2019-06-07T07:12:21.965Z,2.30
2019-06-07T07:14:51.842Z,2.67
2019-06-07T07:17:19.061Z,2.47
2019-06-07T07:19:49.771Z,2.40
2019-06-07T07:22:16.230Z,2.10
2019-06-07T07:24:44.516Z,2.40
2019-06-07T07:27:12.168Z,2.40
2019-06-07T07:29:39.839Z,1.97
2019-06-07T07:32:07.528Z,2.60
2019-06-07T07:34:37.264Z,1.80
2019-06-07T07:37:04.629Z,1.70
2019-06-07T07:39:32.260Z,1.90
2019-06-07T07:42:18.049Z,2.30
2019-06-07T07:44:29.293Z,2.13
2019-06-07T07:46:56.961Z,2.20
2019-06-07T07:49:24.586Z,3.33
2019-06-07T07:51:56.093Z,3.07
2019-06-07T07:54:21.609Z,2.20
2019-06-07T07:56:51.432Z,2.40
2019-06-07T07:59:18.631Z,3.03
2019-06-07T08:01:46.306Z,3.40
2019-06-07T08:04:13.959Z,2.97
2019-06-07T08:06:41.590Z,3.87
2019-06-07T08:09:09.218Z,3.27
2019-06-07T08:11:36.833Z,2.80
2019-06-07T08:14:04.454Z,3.20
2019-06-07T08:16:32.071Z,3.97
2019-06-07T08:19:04.041Z,3.87
2019-06-07T08:21:29.136Z,3.63
2019-06-07T08:24:00.603Z,4.33
2019-06-07T08:26:26.257Z,4.23
2019-06-07T08:28:58.428Z,4.70
2019-06-07T08:31:23.298Z,5.07
2019-06-07T08:33:52.627Z,6.10
2019-06-07T08:36:38.552Z,6.17
2019-06-07T08:38:54.323Z,5.90
2019-06-07T08:41:19.413Z,6.83
2019-06-07T08:43:47.008Z,6.10
2019-06-07T08:46:14.618Z,6.00
2019-06-07T08:48:42.228Z,5.85
2019-06-07T08:51:09.908Z,5.45
2019-06-07T08:53:37.547Z,4.63
2019-06-07T08:56:09.878Z,5.57
2019-06-07T08:58:34.664Z,5.50
2019-06-07T09:01:07.160Z,4.23
2019-06-07T09:03:31.806Z,5.20
2019-06-07T09:06:06.569Z,4.33
2019-06-07T09:08:30.904Z,4.53
2019-06-07T09:10:59.574Z,4.87
2019-06-07T09:13:28.030Z,4.50
2019-06-07T09:15:58.805Z,4.33
2019-06-07T09:18:41.032Z,3.50
2019-06-07T09:20:55.627Z,2.70
2019-06-07T09:23:24.091Z,3.02
2019-06-07T09:26:02.609Z,3.10
2019-06-07T09:28:22.351Z,3.37
2019-06-07T09:30:49.954Z,2.77
2019-06-07T09:33:17.550Z,3.70
2019-06-07T09:35:45.194Z,2.90
2019-06-07T09:38:25.121Z,2.90
2019-06-07T09:40:42.530Z,3.00
2019-06-07T09:45:39.619Z,3.20
2019-06-07T09:48:13.896Z,3.22
2019-06-07T09:50:36.856Z,2.72
2019-06-07T09:53:18.979Z,2.80
2019-06-07T09:55:34.387Z,3.50
2019-06-07T09:58:30.249Z,4.20
2019-06-07T10:00:40.596Z,3.33
2019-06-07T10:03:08.821Z,3.40
2019-06-07T10:05:30.391Z,3.22
2019-06-07T10:08:12.154Z,3.08
2019-06-07T10:12:56.878Z,3.30
2019-06-07T10:15:24.554Z,3.05
2019-06-07T10:17:52.152Z,2.90
2019-06-07T10:20:19.859Z,2.85
2019-06-07T10:22:47.471Z,3.47
2019-06-07T10:25:15.287Z,3.30
2019-06-07T10:27:42.917Z,2.98
2019-06-07T10:30:10.670Z,3.40
2019-06-07T10:32:38.299Z,3.30
2019-06-07T10:35:09.304Z,3.52
2019-06-07T10:37:36.924Z,2.80
2019-06-07T10:40:05.262Z,2.95
2019-06-07T10:42:32.944Z,3.77
2019-06-07T10:45:02.656Z,2.77
2019-06-07T10:47:30.068Z,2.70
2019-06-07T10:49:57.668Z,2.87
2019-06-07T10:52:25.300Z,2.83
2019-06-07T10:54:53.021Z,2.58
2019-06-07T10:57:20.741Z,2.52
2019-06-07T10:59:48.355Z,2.85
2019-06-07T11:02:15.974Z,2.65
2019-06-07T11:04:43.595Z,2.40
2019-06-07T11:07:12.046Z,2.20
2019-06-07T11:09:39.743Z,2.60
2019-06-07T11:12:08.424Z,3.00
2019-06-07T11:14:36.152Z,3.12
2019-06-07T11:17:05.111Z,2.50
2019-06-07T11:19:32.931Z,2.70
2019-06-07T11:22:00.630Z,3.33
2019-06-07T11:24:28.292Z,3.02
2019-06-07T11:26:55.654Z,2.72
2019-06-07T11:29:23.313Z,3.10
2019-06-07T11:31:50.900Z,3.05
2019-06-07T11:34:18.878Z,3.15
2019-06-07T11:36:46.667Z,2.65
2019-06-07T11:39:15.172Z,2.50
2019-06-07T11:41:42.826Z,2.75
2019-06-07T11:44:10.987Z,3.37
2019-06-07T11:46:38.728Z,3.15
2019-06-07T11:49:06.403Z,3.35
2019-06-07T11:51:34.070Z,2.95
2019-06-07T11:54:01.728Z,3.35
2019-06-07T11:56:29.374Z,3.00
2019-06-07T11:58:56.956Z,3.08
2019-06-07T12:01:24.609Z,3.25
2019-06-07T12:03:52.208Z,3.50
2019-06-07T12:06:19.826Z,3.33
2019-06-07T12:08:47.525Z,3.92
2019-06-07T12:11:16.390Z,3.35
2019-06-07T12:13:44.225Z,3.17
2019-06-07T12:16:13.168Z,3.65
2019-06-07T12:18:41.025Z,3.58
2019-06-07T12:21:09.547Z,3.40
2019-06-07T12:23:37.318Z,4.22
2019-06-07T12:26:04.948Z,3.37
2019-06-07T12:28:32.582Z,3.35
2019-06-07T12:31:00.226Z,4.40
2019-06-07T12:33:27.918Z,4.08
2019-06-07T12:35:56.675Z,4.03
2019-06-07T12:38:24.327Z,3.72
2019-06-07T12:40:57.621Z,3.62
2019-06-07T12:43:23.047Z,4.33
2019-06-07T12:45:50.914Z,3.47
2019-06-07T12:48:22.917Z,3.47
2019-06-07T12:50:49.118Z,4.15
2019-06-07T12:53:17.845Z,4.20
2019-06-07T12:55:45.722Z,4.08
2019-06-07T12:58:13.821Z,4.10
2019-06-07T13:00:41.517Z,3.47
2019-06-07T13:03:09.156Z,4.10
2019-06-07T13:05:36.847Z,3.47
2019-06-07T13:08:04.597Z,3.70
2019-06-07T13:10:32.236Z,9.00
2019-06-07T13:12:59.874Z,3.65
2019-06-07T13:15:28.311Z,3.75
2019-06-07T13:17:56.024Z,3.30
2019-06-07T13:20:24.681Z,3.72
2019-06-07T13:22:52.399Z,3.45
2019-06-07T13:25:21.209Z,3.55
2019-06-07T13:27:49.435Z,4.00
2019-06-07T13:30:18.942Z,3.70
2019-06-07T13:32:46.718Z,3.30
2019-06-07T13:35:15.261Z,3.27
2019-06-07T13:37:43.074Z,3.65
2019-06-07T13:40:10.922Z,3.35
2019-06-07T13:42:38.686Z,3.80
2019-06-07T13:45:06.745Z,3.90
2019-06-07T13:47:34.355Z,3.05
2019-06-07T13:50:01.994Z,3.47
2019-06-07T13:52:29.717Z,3.42
2019-06-07T13:54:57.413Z,3.42
2019-06-07T13:57:26.057Z,3.98
2019-06-07T13:59:53.688Z,4.20
2019-06-07T14:02:23.493Z,4.10
2019-06-07T14:04:50.833Z,3.65
2019-06-07T14:07:18.995Z,3.42
2019-06-07T14:09:46.896Z,3.60
2019-06-07T14:12:14.580Z,3.35
2019-06-07T14:14:42.318Z,3.80
2019-06-07T14:17:12.788Z,4.00
2019-06-07T14:19:40.404Z,3.77
2019-06-07T14:22:08.052Z,3.75
2019-06-07T14:24:35.707Z,3.70
2019-06-07T14:27:06.301Z,3.83
2019-06-07T14:29:35.047Z,3.80
2019-06-07T14:32:02.857Z,4.33
2019-06-07T14:34:30.705Z,3.83
2019-06-07T14:36:58.329Z,3.52
2019-06-07T14:39:27.132Z,3.80
2019-06-07T14:42:08.398Z,4.00
2019-06-07T14:44:26.089Z,4.20
2019-06-07T14:46:53.760Z,4.25
2019-06-07T14:49:21.427Z,4.15
2019-06-07T14:51:49.060Z,4.80
2019-06-07T14:54:16.716Z,3.87
2019-06-07T14:56:44.452Z,4.22
2019-06-07T14:59:12.102Z,4.55
2019-06-07T15:01:40.791Z,4.70
2019-06-07T15:04:08.574Z,4.70
2019-06-07T15:06:36.214Z,4.97
2019-06-07T15:09:05.674Z,3.98
2019-06-07T15:11:33.435Z,4.80
2019-06-07T15:14:01.064Z,4.85
2019-06-07T15:16:29.985Z,4.78
2019-06-07T15:18:58.114Z,5.08
2019-06-07T15:21:26.695Z,4.83
2019-06-07T15:23:54.394Z,5.05
2019-06-07T15:26:22.043Z,4.20
2019-06-07T15:28:49.700Z,4.95
2019-06-07T15:31:17.378Z,5.20
2019-06-07T15:33:45.014Z,5.12
2019-06-07T15:36:12.733Z,4.40
2019-06-07T15:38:40.386Z,4.22
2019-06-07T15:41:08.014Z,4.25
2019-06-07T15:43:35.702Z,4.28
2019-06-07T15:46:03.445Z,4.97
2019-06-07T15:48:31.959Z,4.08
2019-06-07T15:50:59.584Z,3.95
2019-06-07T15:53:27.235Z,4.53
2019-06-07T15:55:54.944Z,4.00
2019-06-07T15:58:22.566Z,4.03
2019-06-07T16:00:51.660Z,4.42
2019-06-07T16:03:19.316Z,5.05
2019-06-07T16:05:46.954Z,5.70
2019-06-07T16:08:14.563Z,4.90
2019-06-07T16:10:43.050Z,5.10
2019-06-07T16:13:11.951Z,5.78
2019-06-07T16:15:41.221Z,5.95
2019-06-07T16:18:09.032Z,5.72
2019-06-07T16:20:37.363Z,5.78
2019-06-07T16:23:05.102Z,6.37
2019-06-07T16:25:33.862Z,5.50
2019-06-07T16:28:01.637Z,5.85
2019-06-07T16:30:30.294Z,6.28
2019-06-07T16:32:57.947Z,5.70
2019-06-07T16:35:25.657Z,6.60
2019-06-07T16:37:53.324Z,7.15
2019-06-07T16:40:20.966Z,6.22
2019-06-07T16:42:49.158Z,6.25
2019-06-07T16:45:17.225Z,5.70
2019-06-07T16:47:47.398Z,7.08
2019-06-07T16:50:14.407Z,6.58
2019-06-07T16:52:42.201Z,6.70
2019-06-07T16:55:11.647Z,6.37
2019-06-07T16:57:40.953Z,6.37
2019-06-07T17:00:08.985Z,6.28
2019-06-07T17:02:37.988Z,5.80
2019-06-07T17:05:06.318Z,6.92
2019-06-07T17:07:34.070Z,6.85
2019-06-07T17:10:01.918Z,6.40
2019-06-07T17:12:29.523Z,5.97
2019-06-07T17:14:57.128Z,6.12
2019-06-07T17:17:24.816Z,6.65
2019-06-07T17:19:52.410Z,6.00
2019-06-07T17:22:20.054Z,6.33
2019-06-07T17:24:47.727Z,6.00
2019-06-07T17:27:15.356Z,6.45
2019-06-07T17:29:43.668Z,6.55
2019-06-07T17:32:11.491Z,5.65
2019-06-07T17:34:39.893Z,5.53
2019-06-07T17:37:07.584Z,6.70
2019-06-07T17:39:35.424Z,5.50
2019-06-07T17:42:03.146Z,5.65
2019-06-07T17:44:30.786Z,5.75
2019-06-07T17:46:58.383Z,6.10
2019-06-07T17:49:26.014Z,5.97
2019-06-07T17:51:53.669Z,5.62
2019-06-07T17:54:22.433Z,5.67
2019-06-07T17:56:50.558Z,6.15
2019-06-07T17:59:18.477Z,6.10
2019-06-07T18:02:07.036Z,5.35
2019-06-07T18:04:15.516Z,6.40
2019-06-07T18:06:44.045Z,5.45
2019-06-07T18:09:14.163Z,5.55
2019-06-07T18:11:41.930Z,6.78
2019-06-07T18:14:11.115Z,5.97
2019-06-07T18:16:39.041Z,5.72
2019-06-07T18:19:06.666Z,5.22
2019-06-07T18:21:34.306Z,5.40
2019-06-07T18:24:01.965Z,5.85
2019-06-07T18:26:29.637Z,5.72
2019-06-07T18:28:57.356Z,6.30
2019-06-07T18:31:25.014Z,6.05
2019-06-07T18:33:53.012Z,6.35
2019-06-07T18:36:20.726Z,5.90
2019-06-07T18:38:48.972Z,6.10
2019-06-07T18:41:16.889Z,5.92
2019-06-07T18:43:44.534Z,5.65
2019-06-07T18:46:12.182Z,6.17
2019-06-07T18:48:39.840Z,5.65
2019-06-07T18:51:07.636Z,6.10
2019-06-07T18:53:35.271Z,5.92
2019-06-07T18:56:03.004Z,6.80
2019-06-07T18:58:30.662Z,5.70
2019-06-07T19:00:58.314Z,5.65
2019-06-07T19:03:27.061Z,7.15
2019-06-07T19:05:54.820Z,6.05
2019-06-07T19:08:22.456Z,6.95
2019-06-07T19:10:50.686Z,7.10
2019-06-07T19:13:18.615Z,7.03
2019-06-07T19:15:46.232Z,7.00
2019-06-07T19:18:13.866Z,6.37
2019-06-07T19:20:41.526Z,6.42
2019-06-07T19:23:10.159Z,7.00
2019-06-07T19:25:39.566Z,6.10
2019-06-07T19:28:08.544Z,7.00
2019-06-07T19:30:37.810Z,6.70
2019-06-07T19:33:05.782Z,6.70
2019-06-07T19:35:34.992Z,6.83
2019-06-07T19:38:04.770Z,6.75
2019-06-07T19:40:33.387Z,7.20
2019-06-07T19:43:03.931Z,6.90
2019-06-07T19:45:31.867Z,7.12
2019-06-07T19:48:00.784Z,6.22
2019-06-07T19:50:28.586Z,6.90
2019-06-07T19:52:57.069Z,8.33
2019-06-07T19:55:25.004Z,7.28
2019-06-07T19:57:53.331Z,7.17
2019-06-07T20:00:21.090Z,7.28
2019-06-07T20:02:48.756Z,8.03
2019-06-07T20:05:17.499Z,8.25
2019-06-07T20:07:45.125Z,7.55
2019-06-07T20:10:13.294Z,8.05
2019-06-07T20:12:42.020Z,9.63
2019-06-07T20:15:27.407Z,8.70
2019-06-07T20:17:39.544Z,9.68
2019-06-07T20:20:09.058Z,5.83
2019-06-07T20:22:37.886Z,2.10
2019-06-07T20:25:06.830Z,2.00
2019-06-07T20:27:34.570Z,1.57
2019-06-07T20:30:02.507Z,1.70
2019-06-07T20:32:30.149Z,1.50
2019-06-07T20:34:59.668Z,1.40
2019-06-07T20:37:28.862Z,1.83
2019-06-07T20:40:16.810Z,1.37
2019-06-07T20:42:30.141Z,1.20
2019-06-07T20:44:57.844Z,1.47
2019-06-07T20:47:25.482Z,1.00
2019-06-07T20:49:53.275Z,1.20
2019-06-07T20:52:20.940Z,1.50
2019-06-07T20:54:48.623Z,1.30
2019-06-07T20:57:16.282Z,1.47
2019-06-07T20:59:43.924Z,1.57
2019-06-07T21:02:12.708Z,1.70
2019-06-07T21:04:40.373Z,1.27
2019-06-07T21:07:08.181Z,1.70
2019-06-07T21:09:37.325Z,2.90
2019-06-07T21:12:05.882Z,1.63
2019-06-07T21:14:33.791Z,1.60
2019-06-07T21:17:02.104Z,1.67
2019-06-07T21:19:29.967Z,1.60
2019-06-07T21:21:57.674Z,1.40
2019-06-07T21:24:26.432Z,1.40
2019-06-07T21:26:54.070Z,1.43
2019-06-07T21:29:21.700Z,1.87
2019-06-07T21:31:49.403Z,1.20
2019-06-07T21:34:17.060Z,1.50
2019-06-07T21:36:44.723Z,1.93
2019-06-07T21:39:12.508Z,1.37
2019-06-07T21:41:40.301Z,1.63
2019-06-07T21:44:08.258Z,1.83
2019-06-07T21:46:35.971Z,1.47
2019-06-07T21:49:04.160Z,1.57
2019-06-07T21:51:31.914Z,1.57
2019-06-07T21:53:59.616Z,1.70
2019-06-07T21:56:28.373Z,1.40
2019-06-07T21:58:55.995Z,1.33
2019-06-07T22:01:28.726Z,1.23
2019-06-07T22:03:56.444Z,1.20
2019-06-07T22:06:24.060Z,1.30
2019-06-07T22:08:51.710Z,1.20
2019-06-07T22:11:19.404Z,1.33
2019-06-07T22:13:47.069Z,1.30
2019-06-07T22:16:27.946Z,2.03
2019-06-07T22:18:44.254Z,1.40
2019-06-07T22:21:12.725Z,1.67
2019-06-07T22:23:43.569Z,1.40
2019-06-07T22:26:11.238Z,1.57
2019-06-07T22:28:38.937Z,1.77
2019-06-07T22:31:06.564Z,1.63
2019-06-07T22:33:34.147Z,1.40
2019-06-07T22:36:01.819Z,1.27
2019-06-07T22:38:31.024Z,1.40
2019-06-07T22:40:58.747Z,1.43
2019-06-07T22:43:27.591Z,1.40
2019-06-07T22:45:55.254Z,1.80
2019-06-07T22:48:22.866Z,1.60
2019-06-07T22:50:50.464Z,1.53
2019-06-07T22:53:19.214Z,1.60
2019-06-07T22:55:51.633Z,1.80
2019-06-07T22:58:19.389Z,1.40
2019-06-07T23:00:46.959Z,1.90
2019-06-07T23:03:15.020Z,2.07
2019-06-07T23:05:42.651Z,2.07
2019-06-07T23:08:11.014Z,2.20
2019-06-07T23:10:38.739Z,2.30
2019-06-07T23:13:06.368Z,2.00
2019-06-07T23:15:33.993Z,1.50
2019-06-07T23:18:01.631Z,1.67
2019-06-07T23:20:29.221Z,1.60
2019-06-07T23:22:56.906Z,1.70
2019-06-07T23:25:24.885Z,1.70
2019-06-07T23:27:52.502Z,1.40
2019-06-07T23:30:21.703Z,1.40
2019-06-07T23:32:49.403Z,1.17
2019-06-07T23:35:17.379Z,1.23
2019-06-07T23:37:45.126Z,1.40
2019-06-07T23:40:13.254Z,1.77
2019-06-07T23:42:40.873Z,1.40
2019-06-07T23:45:08.527Z,1.80
2019-06-07T23:47:36.131Z,1.30
2019-06-07T23:50:03.999Z,1.30
2019-06-07T23:52:31.640Z,1.10
2019-06-07T23:54:59.261Z,1.07
2019-06-07T23:57:26.916Z,1.00
2019-06-07T23:59:54.536Z,1.10
